Terminal Aerodrome Forecast
Issued by NWS Omaha/Valley, NE

Home | Current Version | Previous Version | Text Only | Print | Product List | Glossary Off
Versions: 1 2 3 4 5 6 7 8 9 10 11 12 13

000
FTUS43 KOAX 301122
TAFOFK
TAF
KOFK 301122Z 3012/0112 31017G28KT P6SM OVC020
      TEMPO 3012/3016 4SM -SN
     FM010200 31012KT P6SM OVC025=

USA.gov is the U.S. government's official web portal to all federal, state and local government web resources and services.